sensor_id;sensor_type;location;lat;lon;timestamp;temperature;humidity
1626;DHT22;806;48.770;9.156;2024-03-07T00:02:23;8.40;99.90
1626;DHT22;806;48.770;9.156;2024-03-07T00:04:50;8.30;99.90
1626;DHT22;806;48.770;9.156;2024-03-07T00:07:17;8.20;99.90
1626;DHT22;806;48.770;9.156;2024-03-07T00:09:44;8.20;99.90
1626;DHT22;806;48.770;9.156;2024-03-07T00:12:12;8.30;99.90
1626;DHT22;806;48.770;9.156;2024-03-07T00:14:39;8.30;99.90
1626;DHT22;806;48.770;9.156;2024-03-07T00:17:07;8.30;99.90
1626;DHT22;806;48.770;9.156;2024-03-07T00:19:37;8.20;99.90
1626;DHT22;806;48.770;9.156;2024-03-07T00:22:05;8.20;99.90
1626;DHT22;806;48.770;9.156;2024-03-07T00:24:31;8.10;99.90
1626;DHT22;806;48.770;9.156;2024-03-07T00:26:58;8.20;99.90
1626;DHT22;806;48.770;9.156;2024-03-07T00:29:25;8.20;99.90
1626;DHT22;806;48.770;9.156;2024-03-07T00:31:54;8.10;99.90
1626;DHT22;806;48.770;9.156;2024-03-07T00:34:22;8.10;99.90
1626;DHT22;806;48.770;9.156;2024-03-07T00:36:49;8.00;99.90
1626;DHT22;806;48.770;9.156;2024-03-07T00:39:17;8.00;99.90
1626;DHT22;806;48.770;9.156;2024-03-07T00:41:45;8.10;99.90
1626;DHT22;806;48.770;9.156;2024-03-07T00:44:13;8.00;99.90
1626;DHT22;806;48.770;9.156;2024-03-07T00:46:39;8.00;99.90
1626;DHT22;806;48.770;9.156;2024-03-07T00:49:06;7.80;99.90
1626;DHT22;806;48.770;9.156;2024-03-07T00:51:35;7.80;99.90
1626;DHT22;806;48.770;9.156;2024-03-07T00:54:05;7.90;99.90
1626;DHT22;806;48.770;9.156;2024-03-07T00:56:32;7.90;99.90
1626;DHT22;806;48.770;9.156;2024-03-07T00:58:59;7.80;99.90
1626;DHT22;806;48.770;9.156;2024-03-07T01:01:26;7.70;99.90
1626;DHT22;806;48.770;9.156;2024-03-07T01:03:53;7.80;99.90
1626;DHT22;806;48.770;9.156;2024-03-07T01:06:24;7.80;99.90
1626;DHT22;806;48.770;9.156;2024-03-07T01:08:52;7.80;99.90
1626;DHT22;806;48.770;9.156;2024-03-07T01:11:19;7.60;99.90
1626;DHT22;806;48.770;9.156;2024-03-07T01:13:46;7.60;99.90
1626;DHT22;806;48.770;9.156;2024-03-07T01:16:13;7.60;99.90
1626;DHT22;806;48.770;9.156;2024-03-07T01:18:40;7.60;99.90
1626;DHT22;806;48.770;9.156;2024-03-07T01:21:07;7.50;99.90
1626;DHT22;806;48.770;9.156;2024-03-07T01:23:35;7.50;99.90
1626;DHT22;806;48.770;9.156;2024-03-07T01:26:03;7.50;99.90
1626;DHT22;806;48.770;9.156;2024-03-07T01:28:30;7.50;99.90
1626;DHT22;806;48.770;9.156;2024-03-07T01:30:57;7.60;99.90
1626;DHT22;806;48.770;9.156;2024-03-07T01:33:28;7.60;99.90
1626;DHT22;806;48.770;9.156;2024-03-07T01:35:55;7.70;99.90
1626;DHT22;806;48.770;9.156;2024-03-07T01:38:22;7.80;99.90
1626;DHT22;806;48.770;9.156;2024-03-07T01:40:48;7.90;99.90
1626;DHT22;806;48.770;9.156;2024-03-07T01:43:17;7.80;99.90
1626;DHT22;806;48.770;9.156;2024-03-07T01:45:44;7.70;1.00
1626;DHT22;806;48.770;9.156;2024-03-07T01:48:18;7.60;99.90
1626;DHT22;806;48.770;9.156;2024-03-07T01:50:48;7.50;99.90
1626;DHT22;806;48.770;9.156;2024-03-07T01:53:15;7.30;1.00
1626;DHT22;806;48.770;9.156;2024-03-07T01:55:42;7.40;99.90
1626;DHT22;806;48.770;9.156;2024-03-07T01:58:12;7.40;99.90
1626;DHT22;806;48.770;9.156;2024-03-07T02:00:44;7.50;99.90
1626;DHT22;806;48.770;9.156;2024-03-07T02:03:11;7.50;99.90
1626;DHT22;806;48.770;9.156;2024-03-07T02:05:39;7.20;99.90
1626;DHT22;806;48.770;9.156;2024-03-07T02:08:06;7.00;1.00
1626;DHT22;806;48.770;9.156;2024-03-07T02:10:32;7.10;99.90
1626;DHT22;806;48.770;9.156;2024-03-07T02:12:59;7.10;99.90
1626;DHT22;806;48.770;9.156;2024-03-07T02:15:28;7.10;99.90
1626;DHT22;806;48.770;9.156;2024-03-07T02:17:56;7.10;99.90
1626;DHT22;806;48.770;9.156;2024-03-07T02:20:23;7.10;99.90
1626;DHT22;806;48.770;9.156;2024-03-07T02:22:52;6.90;99.90
1626;DHT22;806;48.770;9.156;2024-03-07T02:25:18;6.90;99.90
1626;DHT22;806;48.770;9.156;2024-03-07T02:27:45;6.90;99.90
1626;DHT22;806;48.770;9.156;2024-03-07T02:30:12;7.00;99.90
1626;DHT22;806;48.770;9.156;2024-03-07T02:32:40;7.00;99.90
1626;DHT22;806;48.770;9.156;2024-03-07T02:35:07;7.00;99.90
1626;DHT22;806;48.770;9.156;2024-03-07T02:37:35;7.00;99.90
1626;DHT22;806;48.770;9.156;2024-03-07T02:40:04;6.90;1.00
1626;DHT22;806;48.770;9.156;2024-03-07T02:42:31;6.80;99.90
1626;DHT22;806;48.770;9.156;2024-03-07T02:44:57;6.80;1.00
1626;DHT22;806;48.770;9.156;2024-03-07T02:47:26;6.70;1.00
1626;DHT22;806;48.770;9.156;2024-03-07T02:49:54;6.70;99.90
1626;DHT22;806;48.770;9.156;2024-03-07T02:52:21;6.70;99.90
1626;DHT22;806;48.770;9.156;2024-03-07T02:54:48;6.60;99.90
1626;DHT22;806;48.770;9.156;2024-03-07T02:57:16;6.40;99.90
1626;DHT22;806;48.770;9.156;2024-03-07T02:59:43;6.20;1.00
1626;DHT22;806;48.770;9.156;2024-03-07T03:02:09;6.30;1.00
1626;DHT22;806;48.770;9.156;2024-03-07T03:04:36;6.40;1.00
1626;DHT22;806;48.770;9.156;2024-03-07T03:07:03;6.40;99.90
1626;DHT22;806;48.770;9.156;2024-03-07T03:09:30;6.50;99.90
1626;DHT22;806;48.770;9.156;2024-03-07T03:11:59;6.30;99.90
1626;DHT22;806;48.770;9.156;2024-03-07T03:14:27;6.20;1.00
1626;DHT22;806;48.770;9.156;2024-03-07T03:16:54;6.10;1.00
1626;DHT22;806;48.770;9.156;2024-03-07T03:19:22;5.90;1.00
1626;DHT22;806;48.770;9.156;2024-03-07T03:21:49;6.10;1.00
1626;DHT22;806;48.770;9.156;2024-03-07T03:24:16;6.20;1.00
1626;DHT22;806;48.770;9.156;2024-03-07T03:26:43;6.00;99.90
1626;DHT22;806;48.770;9.156;2024-03-07T03:29:10;5.80;1.00
1626;DHT22;806;48.770;9.156;2024-03-07T03:31:40;5.80;1.00
1626;DHT22;806;48.770;9.156;2024-03-07T03:34:07;5.60;1.00
1626;DHT22;806;48.770;9.156;2024-03-07T03:36:35;5.60;1.00
1626;DHT22;806;48.770;9.156;2024-03-07T03:39:02;5.60;99.90
1626;DHT22;806;48.770;9.156;2024-03-07T03:41:29;5.70;99.90
1626;DHT22;806;48.770;9.156;2024-03-07T03:43:56;5.70;99.90
1626;DHT22;806;48.770;9.156;2024-03-07T03:46:24;5.50;99.90
1626;DHT22;806;48.770;9.156;2024-03-07T03:48:52;5.40;99.90
1626;DHT22;806;48.770;9.156;2024-03-07T03:51:19;5.30;99.90
1626;DHT22;806;48.770;9.156;2024-03-07T03:53:47;5.20;99.90
1626;DHT22;806;48.770;9.156;2024-03-07T03:56:14;5.30;99.90
1626;DHT22;806;48.770;9.156;2024-03-07T03:58:43;5.40;99.90
1626;DHT22;806;48.770;9.156;2024-03-07T04:01:10;5.50;99.90
1626;DHT22;806;48.770;9.156;2024-03-07T04:03:40;5.40;99.90
1626;DHT22;806;48.770;9.156;2024-03-07T04:06:08;5.40;99.90
1626;DHT22;806;48.770;9.156;2024-03-07T04:08:35;5.40;99.90
1626;DHT22;806;48.770;9.156;2024-03-07T04:11:02;5.40;99.90
1626;DHT22;806;48.770;9.156;2024-03-07T04:13:30;5.50;99.90
1626;DHT22;806;48.770;9.156;2024-03-07T04:15:57;5.30;99.90
1626;DHT22;806;48.770;9.156;2024-03-07T04:18:24;5.40;99.90
1626;DHT22;806;48.770;9.156;2024-03-07T04:20:52;5.40;99.90
1626;DHT22;806;48.770;9.156;2024-03-07T04:23:21;5.50;99.90
1626;DHT22;806;48.770;9.156;2024-03-07T04:25:48;5.50;99.90
1626;DHT22;806;48.770;9.156;2024-03-07T04:28:17;5.50;1.00
1626;DHT22;806;48.770;9.156;2024-03-07T04:30:44;5.40;99.90
1626;DHT22;806;48.770;9.156;2024-03-07T04:33:11;5.30;99.90
1626;DHT22;806;48.770;9.156;2024-03-07T04:35:39;5.40;1.00
1626;DHT22;806;48.770;9.156;2024-03-07T04:38:05;5.30;99.90
1626;DHT22;806;48.770;9.156;2024-03-07T04:40:38;5.30;99.90
1626;DHT22;806;48.770;9.156;2024-03-07T04:43:05;5.20;99.90
1626;DHT22;806;48.770;9.156;2024-03-07T04:45:33;5.10;1.00
1626;DHT22;806;48.770;9.156;2024-03-07T04:48:00;5.20;7.90
1626;DHT22;806;48.770;9.156;2024-03-07T04:50:27;5.30;99.90
1626;DHT22;806;48.770;9.156;2024-03-07T04:52:54;5.30;99.90
1626;DHT22;806;48.770;9.156;2024-03-07T04:55:21;5.20;99.90
1626;DHT22;806;48.770;9.156;2024-03-07T04:57:49;5.10;1.00
1626;DHT22;806;48.770;9.156;2024-03-07T05:00:17;5.10;1.00
1626;DHT22;806;48.770;9.156;2024-03-07T05:02:46;5.00;1.00
1626;DHT22;806;48.770;9.156;2024-03-07T05:05:13;5.10;1.00
1626;DHT22;806;48.770;9.156;2024-03-07T05:07:44;5.20;1.00
1626;DHT22;806;48.770;9.156;2024-03-07T05:10:11;5.10;99.90
1626;DHT22;806;48.770;9.156;2024-03-07T05:12:38;5.10;99.90
1626;DHT22;806;48.770;9.156;2024-03-07T05:15:07;5.00;99.90
1626;DHT22;806;48.770;9.156;2024-03-07T05:17:35;4.90;1.00
1626;DHT22;806;48.770;9.156;2024-03-07T05:20:05;4.70;99.90
1626;DHT22;806;48.770;9.156;2024-03-07T05:22:35;4.70;1.00
1626;DHT22;806;48.770;9.156;2024-03-07T05:25:05;5.00;24.50
1626;DHT22;806;48.770;9.156;2024-03-07T05:27:32;5.10;99.90
1626;DHT22;806;48.770;9.156;2024-03-07T05:30:01;5.00;99.90
1626;DHT22;806;48.770;9.156;2024-03-07T05:32:29;5.00;99.90
1626;DHT22;806;48.770;9.156;2024-03-07T05:34:56;4.90;99.90
1626;DHT22;806;48.770;9.156;2024-03-07T05:37:23;4.90;1.00
1626;DHT22;806;48.770;9.156;2024-03-07T05:39:51;4.80;1.00
1626;DHT22;806;48.770;9.156;2024-03-07T05:42:21;4.90;1.00
1626;DHT22;806;48.770;9.156;2024-03-07T05:44:50;5.10;99.90
1626;DHT22;806;48.770;9.156;2024-03-07T05:47:19;5.10;99.90
1626;DHT22;806;48.770;9.156;2024-03-07T05:49:48;4.90;99.90
1626;DHT22;806;48.770;9.156;2024-03-07T05:52:15;4.70;1.00
1626;DHT22;806;48.770;9.156;2024-03-07T05:54:42;4.90;1.00
1626;DHT22;806;48.770;9.156;2024-03-07T05:57:10;4.90;99.90
1626;DHT22;806;48.770;9.156;2024-03-07T05:59:37;4.70;99.90
1626;DHT22;806;48.770;9.156;2024-03-07T06:02:05;4.70;1.00
1626;DHT22;806;48.770;9.156;2024-03-07T06:04:32;4.70;1.00
1626;DHT22;806;48.770;9.156;2024-03-07T06:07:01;4.60;99.90
1626;DHT22;806;48.770;9.156;2024-03-07T06:09:28;4.60;1.00
1626;DHT22;806;48.770;9.156;2024-03-07T06:11:54;4.60;1.00
1626;DHT22;806;48.770;9.156;2024-03-07T06:14:21;4.70;1.00
1626;DHT22;806;48.770;9.156;2024-03-07T06:16:49;4.60;99.90
1626;DHT22;806;48.770;9.156;2024-03-07T06:19:17;4.50;1.00
1626;DHT22;806;48.770;9.156;2024-03-07T06:21:44;4.60;1.00
1626;DHT22;806;48.770;9.156;2024-03-07T06:24:13;4.70;99.90
1626;DHT22;806;48.770;9.156;2024-03-07T06:26:41;4.80;99.90
1626;DHT22;806;48.770;9.156;2024-03-07T06:29:25;4.90;99.90
1626;DHT22;806;48.770;9.156;2024-03-07T06:31:52;4.80;99.90
1626;DHT22;806;48.770;9.156;2024-03-07T06:34:20;5.00;1.00
1626;DHT22;806;48.770;9.156;2024-03-07T06:36:47;4.80;99.90
1626;DHT22;806;48.770;9.156;2024-03-07T06:39:15;4.80;99.90
1626;DHT22;806;48.770;9.156;2024-03-07T06:41:42;4.80;99.90
1626;DHT22;806;48.770;9.156;2024-03-07T06:44:11;4.80;99.90
1626;DHT22;806;48.770;9.156;2024-03-07T06:46:37;4.70;99.90
1626;DHT22;806;48.770;9.156;2024-03-07T06:49:04;4.80;1.00
1626;DHT22;806;48.770;9.156;2024-03-07T06:51:35;4.70;99.90
1626;DHT22;806;48.770;9.156;2024-03-07T06:54:03;4.60;99.90
1626;DHT22;806;48.770;9.156;2024-03-07T06:56:32;4.40;1.00
1626;DHT22;806;48.770;9.156;2024-03-07T06:58:59;4.40;1.00
1626;DHT22;806;48.770;9.156;2024-03-07T07:01:30;4.40;1.00
1626;DHT22;806;48.770;9.156;2024-03-07T07:03:56;4.50;1.00
1626;DHT22;806;48.770;9.156;2024-03-07T07:06:24;4.70;99.90
1626;DHT22;806;48.770;9.156;2024-03-07T07:08:51;4.80;99.90
1626;DHT22;806;48.770;9.156;2024-03-07T07:11:19;4.90;99.90
1626;DHT22;806;48.770;9.156;2024-03-07T07:13:47;4.90;99.90
1626;DHT22;806;48.770;9.156;2024-03-07T07:16:15;4.80;99.90
1626;DHT22;806;48.770;9.156;2024-03-07T07:18:44;4.90;99.90
1626;DHT22;806;48.770;9.156;2024-03-07T07:21:11;4.90;99.90
1626;DHT22;806;48.770;9.156;2024-03-07T07:23:41;4.70;1.00
1626;DHT22;806;48.770;9.156;2024-03-07T07:26:09;5.00;1.00
1626;DHT22;806;48.770;9.156;2024-03-07T07:28:37;5.00;1.00
1626;DHT22;806;48.770;9.156;2024-03-07T07:31:05;5.50;1.00
1626;DHT22;806;48.770;9.156;2024-03-07T07:33:32;5.60;99.90
1626;DHT22;806;48.770;9.156;2024-03-07T07:35:59;5.70;99.90
1626;DHT22;806;48.770;9.156;2024-03-07T07:38:26;5.60;99.90
1626;DHT22;806;48.770;9.156;2024-03-07T07:40:53;5.30;99.90
1626;DHT22;806;48.770;9.156;2024-03-07T07:43:19;5.10;99.90
1626;DHT22;806;48.770;9.156;2024-03-07T07:45:46;5.00;99.90
1626;DHT22;806;48.770;9.156;2024-03-07T07:48:14;5.00;1.00
1626;DHT22;806;48.770;9.156;2024-03-07T07:50:42;4.90;1.00
1626;DHT22;806;48.770;9.156;2024-03-07T07:53:09;4.70;1.00
1626;DHT22;806;48.770;9.156;2024-03-07T07:55:36;5.00;1.00
1626;DHT22;806;48.770;9.156;2024-03-07T07:58:04;5.00;1.00
1626;DHT22;806;48.770;9.156;2024-03-07T08:00:31;4.80;99.90
1626;DHT22;806;48.770;9.156;2024-03-07T08:02:59;4.80;1.00
1626;DHT22;806;48.770;9.156;2024-03-07T08:05:28;4.80;1.00
1626;DHT22;806;48.770;9.156;2024-03-07T08:08:00;4.90;1.00
1626;DHT22;806;48.770;9.156;2024-03-07T08:10:29;5.00;99.90
1626;DHT22;806;48.770;9.156;2024-03-07T08:12:57;4.90;99.90
1626;DHT22;806;48.770;9.156;2024-03-07T08:15:27;5.40;1.00
1626;DHT22;806;48.770;9.156;2024-03-07T08:17:55;5.40;1.00
1626;DHT22;806;48.770;9.156;2024-03-07T08:20:23;5.30;99.90
1626;DHT22;806;48.770;9.156;2024-03-07T08:22:54;5.30;99.90
1626;DHT22;806;48.770;9.156;2024-03-07T08:25:25;5.70;1.00
1626;DHT22;806;48.770;9.156;2024-03-07T08:27:53;5.80;99.90
1626;DHT22;806;48.770;9.156;2024-03-07T08:30:22;6.00;99.90
1626;DHT22;806;48.770;9.156;2024-03-07T08:32:50;6.00;99.90
1626;DHT22;806;48.770;9.156;2024-03-07T08:35:18;5.90;1.00
1626;DHT22;806;48.770;9.156;2024-03-07T08:37:47;5.80;1.00
1626;DHT22;806;48.770;9.156;2024-03-07T08:40:16;6.00;99.90
1626;DHT22;806;48.770;9.156;2024-03-07T08:42:47;6.10;1.00
1626;DHT22;806;48.770;9.156;2024-03-07T08:45:15;6.50;1.00
1626;DHT22;806;48.770;9.156;2024-03-07T08:47:45;6.30;99.90
1626;DHT22;806;48.770;9.156;2024-03-07T08:50:13;6.00;99.90
1626;DHT22;806;48.770;9.156;2024-03-07T08:52:41;6.30;99.90
1626;DHT22;806;48.770;9.156;2024-03-07T08:55:11;6.30;99.90
1626;DHT22;806;48.770;9.156;2024-03-07T08:57:42;6.60;99.90
1626;DHT22;806;48.770;9.156;2024-03-07T09:00:10;6.90;1.00
1626;DHT22;806;48.770;9.156;2024-03-07T09:02:41;6.90;99.90
1626;DHT22;806;48.770;9.156;2024-03-07T09:05:08;7.00;89.30
1626;DHT22;806;48.770;9.156;2024-03-07T09:07:36;7.00;99.90
1626;DHT22;806;48.770;9.156;2024-03-07T09:10:03;6.80;99.90
1626;DHT22;806;48.770;9.156;2024-03-07T09:12:32;6.80;1.00
1626;DHT22;806;48.770;9.156;2024-03-07T09:15:01;6.70;1.00
1626;DHT22;806;48.770;9.156;2024-03-07T09:17:28;6.60;99.90
1626;DHT22;806;48.770;9.156;2024-03-07T09:19:55;6.60;99.90
1626;DHT22;806;48.770;9.156;2024-03-07T09:22:22;6.70;99.90
1626;DHT22;806;48.770;9.156;2024-03-07T09:24:49;6.70;1.00
1626;DHT22;806;48.770;9.156;2024-03-07T09:27:17;7.00;99.90
1626;DHT22;806;48.770;9.156;2024-03-07T09:29:45;7.60;1.00
1626;DHT22;806;48.770;9.156;2024-03-07T09:32:14;7.70;1.00
1626;DHT22;806;48.770;9.156;2024-03-07T09:34:41;7.60;24.90
1626;DHT22;806;48.770;9.156;2024-03-07T09:37:08;7.00;99.90
1626;DHT22;806;48.770;9.156;2024-03-07T09:39:35;7.10;1.00
1626;DHT22;806;48.770;9.156;2024-03-07T09:42:03;6.90;1.00
1626;DHT22;806;48.770;9.156;2024-03-07T09:44:32;6.70;43.60
1626;DHT22;806;48.770;9.156;2024-03-07T09:47:00;7.10;1.00
1626;DHT22;806;48.770;9.156;2024-03-07T09:49:30;7.50;99.90
1626;DHT22;806;48.770;9.156;2024-03-07T09:51:58;7.70;1.00
1626;DHT22;806;48.770;9.156;2024-03-07T09:54:30;7.50;99.90
1626;DHT22;806;48.770;9.156;2024-03-07T09:56:59;7.30;99.90
1626;DHT22;806;48.770;9.156;2024-03-07T09:59:28;7.80;1.00
1626;DHT22;806;48.770;9.156;2024-03-07T10:02:00;7.80;74.20
1626;DHT22;806;48.770;9.156;2024-03-07T10:04:31;7.70;1.00
1626;DHT22;806;48.770;9.156;2024-03-07T10:07:03;7.90;53.80
1626;DHT22;806;48.770;9.156;2024-03-07T10:09:38;7.90;99.90
1626;DHT22;806;48.770;9.156;2024-03-07T10:12:06;8.10;1.00
1626;DHT22;806;48.770;9.156;2024-03-07T10:14:35;8.00;1.00
1626;DHT22;806;48.770;9.156;2024-03-07T10:17:04;8.10;1.00
1626;DHT22;806;48.770;9.156;2024-03-07T10:19:32;8.50;1.00
1626;DHT22;806;48.770;9.156;2024-03-07T10:22:00;8.60;99.90
1626;DHT22;806;48.770;9.156;2024-03-07T10:24:27;8.80;99.90
1626;DHT22;806;48.770;9.156;2024-03-07T10:26:54;8.70;99.90
1626;DHT22;806;48.770;9.156;2024-03-07T10:29:23;8.70;99.90
1626;DHT22;806;48.770;9.156;2024-03-07T10:31:50;8.40;99.90
1626;DHT22;806;48.770;9.156;2024-03-07T10:34:18;7.90;99.90
1626;DHT22;806;48.770;9.156;2024-03-07T10:36:47;8.00;99.90
1626;DHT22;806;48.770;9.156;2024-03-07T10:39:14;7.90;36.60
1626;DHT22;806;48.770;9.156;2024-03-07T10:41:45;7.90;99.90
1626;DHT22;806;48.770;9.156;2024-03-07T10:44:19;7.70;99.90
1626;DHT22;806;48.770;9.156;2024-03-07T10:46:52;7.70;99.90
1626;DHT22;806;48.770;9.156;2024-03-07T10:49:20;8.10;1.00
1626;DHT22;806;48.770;9.156;2024-03-07T10:51:58;8.50;99.90
1626;DHT22;806;48.770;9.156;2024-03-07T10:54:33;8.60;99.90
1626;DHT22;806;48.770;9.156;2024-03-07T10:57:11;8.60;99.90
1626;DHT22;806;48.770;9.156;2024-03-07T10:59:48;8.40;99.90
1626;DHT22;806;48.770;9.156;2024-03-07T11:02:24;8.40;1.00
1626;DHT22;806;48.770;9.156;2024-03-07T11:04:56;8.40;1.00
1626;DHT22;806;48.770;9.156;2024-03-07T11:07:25;8.30;1.00
1626;DHT22;806;48.770;9.156;2024-03-07T11:09:54;8.50;99.90
1626;DHT22;806;48.770;9.156;2024-03-07T11:12:23;8.50;99.90
1626;DHT22;806;48.770;9.156;2024-03-07T11:14:53;8.50;99.90
1626;DHT22;806;48.770;9.156;2024-03-07T11:17:22;8.40;99.90
1626;DHT22;806;48.770;9.156;2024-03-07T11:19:49;8.60;99.90
1626;DHT22;806;48.770;9.156;2024-03-07T11:22:38;8.80;1.00
1626;DHT22;806;48.770;9.156;2024-03-07T11:25:07;9.10;99.90
1626;DHT22;806;48.770;9.156;2024-03-07T11:27:37;8.70;99.90
1626;DHT22;806;48.770;9.156;2024-03-07T11:30:06;9.00;73.80
1626;DHT22;806;48.770;9.156;2024-03-07T11:32:35;9.40;1.00
1626;DHT22;806;48.770;9.156;2024-03-07T11:35:04;9.70;99.90
1626;DHT22;806;48.770;9.156;2024-03-07T11:37:41;9.60;99.90
1626;DHT22;806;48.770;9.156;2024-03-07T11:40:42;9.40;99.90
1626;DHT22;806;48.770;9.156;2024-03-07T11:43:11;9.60;99.90
1626;DHT22;806;48.770;9.156;2024-03-07T11:45:44;9.70;99.90
1626;DHT22;806;48.770;9.156;2024-03-07T11:48:26;9.50;99.90
1626;DHT22;806;48.770;9.156;2024-03-07T11:50:53;9.30;99.90
1626;DHT22;806;48.770;9.156;2024-03-07T11:53:22;9.40;99.90
1626;DHT22;806;48.770;9.156;2024-03-07T11:55:49;9.50;99.90
1626;DHT22;806;48.770;9.156;2024-03-07T11:58:21;9.50;99.90
1626;DHT22;806;48.770;9.156;2024-03-07T12:00:49;9.70;99.90
1626;DHT22;806;48.770;9.156;2024-03-07T12:03:17;9.70;99.90
1626;DHT22;806;48.770;9.156;2024-03-07T12:05:46;9.30;99.90
1626;DHT22;806;48.770;9.156;2024-03-07T12:08:14;8.90;99.90
1626;DHT22;806;48.770;9.156;2024-03-07T12:10:44;8.50;52.00
1626;DHT22;806;48.770;9.156;2024-03-07T12:13:11;8.50;99.90
1626;DHT22;806;48.770;9.156;2024-03-07T12:15:41;8.50;99.90
1626;DHT22;806;48.770;9.156;2024-03-07T12:18:10;8.70;99.90
1626;DHT22;806;48.770;9.156;2024-03-07T12:20:40;8.80;1.00
1626;DHT22;806;48.770;9.156;2024-03-07T12:23:15;9.00;99.90
1626;DHT22;806;48.770;9.156;2024-03-07T12:25:46;8.40;1.00
1626;DHT22;806;48.770;9.156;2024-03-07T12:28:14;8.60;99.90
1626;DHT22;806;48.770;9.156;2024-03-07T12:30:50;8.60;1.00
1626;DHT22;806;48.770;9.156;2024-03-07T12:33:18;8.60;1.00
1626;DHT22;806;48.770;9.156;2024-03-07T12:35:46;8.50;99.90
1626;DHT22;806;48.770;9.156;2024-03-07T12:38:15;8.20;99.90
1626;DHT22;806;48.770;9.156;2024-03-07T12:40:43;8.40;99.90
1626;DHT22;806;48.770;9.156;2024-03-07T12:43:17;8.20;99.90
1626;DHT22;806;48.770;9.156;2024-03-07T12:45:48;8.50;1.00
1626;DHT22;806;48.770;9.156;2024-03-07T12:48:18;8.80;99.90
1626;DHT22;806;48.770;9.156;2024-03-07T12:50:50;9.00;70.90
1626;DHT22;806;48.770;9.156;2024-03-07T12:53:19;9.20;52.40
1626;DHT22;806;48.770;9.156;2024-03-07T12:55:47;8.90;1.00
1626;DHT22;806;48.770;9.156;2024-03-07T12:58:16;8.70;99.90
1626;DHT22;806;48.770;9.156;2024-03-07T13:00:44;8.90;99.90
1626;DHT22;806;48.770;9.156;2024-03-07T13:03:11;8.70;1.00
1626;DHT22;806;48.770;9.156;2024-03-07T13:05:40;8.60;1.00
1626;DHT22;806;48.770;9.156;2024-03-07T13:08:09;8.50;99.90
1626;DHT22;806;48.770;9.156;2024-03-07T13:10:38;8.60;1.00
1626;DHT22;806;48.770;9.156;2024-03-07T13:13:06;8.80;99.90
1626;DHT22;806;48.770;9.156;2024-03-07T13:15:36;8.90;16.30
1626;DHT22;806;48.770;9.156;2024-03-07T13:18:04;9.00;99.90
1626;DHT22;806;48.770;9.156;2024-03-07T13:20:32;9.00;99.90
1626;DHT22;806;48.770;9.156;2024-03-07T13:22:59;8.90;99.90
1626;DHT22;806;48.770;9.156;2024-03-07T13:25:29;9.10;95.60
1626;DHT22;806;48.770;9.156;2024-03-07T13:28:03;9.10;99.90
1626;DHT22;806;48.770;9.156;2024-03-07T13:30:34;9.10;99.90
1626;DHT22;806;48.770;9.156;2024-03-07T13:33:04;9.10;99.90
1626;DHT22;806;48.770;9.156;2024-03-07T13:35:31;9.20;99.90
1626;DHT22;806;48.770;9.156;2024-03-07T13:37:59;9.20;99.90
1626;DHT22;806;48.770;9.156;2024-03-07T13:40:26;9.30;99.90
1626;DHT22;806;48.770;9.156;2024-03-07T13:42:55;9.10;99.90
1626;DHT22;806;48.770;9.156;2024-03-07T13:45:24;9.20;99.90
1626;DHT22;806;48.770;9.156;2024-03-07T13:47:52;9.20;99.90
1626;DHT22;806;48.770;9.156;2024-03-07T13:50:23;9.20;99.90
1626;DHT22;806;48.770;9.156;2024-03-07T13:52:51;9.20;99.90
1626;DHT22;806;48.770;9.156;2024-03-07T13:55:46;9.00;99.90
1626;DHT22;806;48.770;9.156;2024-03-07T13:58:20;9.00;99.90
1626;DHT22;806;48.770;9.156;2024-03-07T14:00:57;9.00;99.90
1626;DHT22;806;48.770;9.156;2024-03-07T14:03:59;8.90;99.90
1626;DHT22;806;48.770;9.156;2024-03-07T14:06:47;8.90;99.90
1626;DHT22;806;48.770;9.156;2024-03-07T14:09:41;9.00;99.90
1626;DHT22;806;48.770;9.156;2024-03-07T14:12:31;9.10;99.90
1626;DHT22;806;48.770;9.156;2024-03-07T14:21:53;9.30;99.90
1626;DHT22;806;48.770;9.156;2024-03-07T14:27:54;9.40;99.90
1626;DHT22;806;48.770;9.156;2024-03-07T14:30:38;9.50;99.90
1626;DHT22;806;48.770;9.156;2024-03-07T14:33:09;9.50;99.90
1626;DHT22;806;48.770;9.156;2024-03-07T14:35:59;9.50;99.90
1626;DHT22;806;48.770;9.156;2024-03-07T14:38:43;9.50;99.90
1626;DHT22;806;48.770;9.156;2024-03-07T14:41:11;9.60;99.90
1626;DHT22;806;48.770;9.156;2024-03-07T14:43:43;9.80;99.90
1626;DHT22;806;48.770;9.156;2024-03-07T14:46:12;9.70;99.90
1626;DHT22;806;48.770;9.156;2024-03-07T14:48:54;9.80;99.90
1626;DHT22;806;48.770;9.156;2024-03-07T14:51:21;9.90;99.90
1626;DHT22;806;48.770;9.156;2024-03-07T14:53:51;9.80;99.90
1626;DHT22;806;48.770;9.156;2024-03-07T14:56:18;9.80;99.90
1626;DHT22;806;48.770;9.156;2024-03-07T14:58:46;9.90;99.90
1626;DHT22;806;48.770;9.156;2024-03-07T15:01:13;10.00;99.90
1626;DHT22;806;48.770;9.156;2024-03-07T15:03:41;9.90;99.90
1626;DHT22;806;48.770;9.156;2024-03-07T15:06:10;9.80;99.90
1626;DHT22;806;48.770;9.156;2024-03-07T15:08:40;9.70;99.90
1626;DHT22;806;48.770;9.156;2024-03-07T15:11:15;9.80;99.90
1626;DHT22;806;48.770;9.156;2024-03-07T15:13:46;9.70;99.90
1626;DHT22;806;48.770;9.156;2024-03-07T15:16:13;9.70;99.90
1626;DHT22;806;48.770;9.156;2024-03-07T15:18:40;9.70;99.90
1626;DHT22;806;48.770;9.156;2024-03-07T15:21:09;9.50;99.90
1626;DHT22;806;48.770;9.156;2024-03-07T15:23:40;9.50;99.90
1626;DHT22;806;48.770;9.156;2024-03-07T15:26:07;9.40;99.90
1626;DHT22;806;48.770;9.156;2024-03-07T15:28:36;9.50;99.90
1626;DHT22;806;48.770;9.156;2024-03-07T15:31:03;9.40;99.90
1626;DHT22;806;48.770;9.156;2024-03-07T15:33:32;9.30;99.90
1626;DHT22;806;48.770;9.156;2024-03-07T15:35:59;9.40;99.90
1626;DHT22;806;48.770;9.156;2024-03-07T15:38:27;9.30;99.90
1626;DHT22;806;48.770;9.156;2024-03-07T15:40:59;9.30;99.90
1626;DHT22;806;48.770;9.156;2024-03-07T15:43:27;9.30;99.90
1626;DHT22;806;48.770;9.156;2024-03-07T15:45:56;9.10;99.90
1626;DHT22;806;48.770;9.156;2024-03-07T15:48:23;9.20;99.90
1626;DHT22;806;48.770;9.156;2024-03-07T15:50:51;9.20;99.90
1626;DHT22;806;48.770;9.156;2024-03-07T15:53:18;9.20;99.90
1626;DHT22;806;48.770;9.156;2024-03-07T15:55:45;9.10;99.90
1626;DHT22;806;48.770;9.156;2024-03-07T15:58:13;9.10;99.90
1626;DHT22;806;48.770;9.156;2024-03-07T16:00:43;9.20;99.90
1626;DHT22;806;48.770;9.156;2024-03-07T16:03:14;9.30;99.90
1626;DHT22;806;48.770;9.156;2024-03-07T16:05:42;9.30;99.90
1626;DHT22;806;48.770;9.156;2024-03-07T16:08:13;9.20;99.90
1626;DHT22;806;48.770;9.156;2024-03-07T16:10:42;9.20;99.90
1626;DHT22;806;48.770;9.156;2024-03-07T16:13:11;9.20;99.90
1626;DHT22;806;48.770;9.156;2024-03-07T16:15:41;9.10;99.90
1626;DHT22;806;48.770;9.156;2024-03-07T16:18:12;8.90;99.90
1626;DHT22;806;48.770;9.156;2024-03-07T16:20:41;8.90;99.90
1626;DHT22;806;48.770;9.156;2024-03-07T16:23:11;8.80;99.90
1626;DHT22;806;48.770;9.156;2024-03-07T16:25:40;8.80;99.90
1626;DHT22;806;48.770;9.156;2024-03-07T16:28:08;8.70;99.90
1626;DHT22;806;48.770;9.156;2024-03-07T16:30:36;8.80;99.90
1626;DHT22;806;48.770;9.156;2024-03-07T16:33:09;8.90;99.90
1626;DHT22;806;48.770;9.156;2024-03-07T16:35:36;9.00;99.90
1626;DHT22;806;48.770;9.156;2024-03-07T16:38:04;9.00;99.90
1626;DHT22;806;48.770;9.156;2024-03-07T16:40:34;9.00;99.90
1626;DHT22;806;48.770;9.156;2024-03-07T16:43:03;8.70;99.90
1626;DHT22;806;48.770;9.156;2024-03-07T16:45:33;8.80;99.90
1626;DHT22;806;48.770;9.156;2024-03-07T16:48:01;8.70;99.90
1626;DHT22;806;48.770;9.156;2024-03-07T16:50:31;8.70;99.90
1626;DHT22;806;48.770;9.156;2024-03-07T16:52:59;8.60;99.90
1626;DHT22;806;48.770;9.156;2024-03-07T16:55:29;8.60;99.90
1626;DHT22;806;48.770;9.156;2024-03-07T16:57:56;8.70;99.90
1626;DHT22;806;48.770;9.156;2024-03-07T17:00:24;8.60;99.90
1626;DHT22;806;48.770;9.156;2024-03-07T17:02:53;8.60;99.90